<?xml version="1.0" encoding="UTF-8" standalone="no" ?>
<gpx xmlns="http://www.topografix.com/GPX/1/1" xmlns:xsi="http://www.w3.org/2001/XMLSchema-instance" xsi:schemaLocation="http://www.topografix.com/GPX/1/1 http://www.topografix.com/GPX/1/1/gpx.xsd" version="1.1" creator="VisuGPX - https://www.visugpx.com">
  <metadata>
    <name>Le lac de Creno</name>
    <desc><![CDATA[Le lac de Creno en Corse]]></desc>
  </metadata>
  <trk>
    <name><![CDATA[2014-07-19-01]]></name>
    <trkseg>
      <trkpt lat="42.19571" lon="8.92103">
        <ele>1067.3</ele>
        <time>2014-07-19T10:05:49Z</time>
      </trkpt>
      <trkpt lat="42.19571" lon="8.92103">
        <ele>1067.3</ele>
        <time>2014-07-19T10:05:50Z</time>
      </trkpt>
      <trkpt lat="42.19558" lon="8.9216">
        <ele>1068</ele>
        <time>2014-07-19T10:07:11Z</time>
      </trkpt>
      <trkpt lat="42.19557" lon="8.92161">
        <ele>1068</ele>
        <time>2014-07-19T10:07:12Z</time>
      </trkpt>
      <trkpt lat="42.19553" lon="8.92219">
        <ele>1066.5</ele>
        <time>2014-07-19T10:08:05Z</time>
      </trkpt>
      <trkpt lat="42.19547" lon="8.92248">
        <ele>1065.9</ele>
        <time>2014-07-19T10:08:36Z</time>
      </trkpt>
      <trkpt lat="42.19547" lon="8.92249">
        <ele>1065.9</ele>
        <time>2014-07-19T10:08:37Z</time>
      </trkpt>
      <trkpt lat="42.19547" lon="8.92307">
        <ele>1066.5</ele>
        <time>2014-07-19T10:09:27Z</time>
      </trkpt>
      <trkpt lat="42.19545" lon="8.92337">
        <ele>1067.8</ele>
        <time>2014-07-19T10:09:45Z</time>
      </trkpt>
      <trkpt lat="42.19545" lon="8.92338">
        <ele>1067.9</ele>
        <time>2014-07-19T10:09:46Z</time>
      </trkpt>
      <trkpt lat="42.19549" lon="8.92395">
        <ele>1071</ele>
        <time>2014-07-19T10:10:38Z</time>
      </trkpt>
      <trkpt lat="42.1955" lon="8.92425">
        <ele>1071.9</ele>
        <time>2014-07-19T10:11:00Z</time>
      </trkpt>
      <trkpt lat="42.1955" lon="8.92427">
        <ele>1071.9</ele>
        <time>2014-07-19T10:11:01Z</time>
      </trkpt>
      <trkpt lat="42.19556" lon="8.92482">
        <ele>1073.5</ele>
        <time>2014-07-19T10:11:49Z</time>
      </trkpt>
      <trkpt lat="42.19564" lon="8.9251">
        <ele>1074.9</ele>
        <time>2014-07-19T10:12:14Z</time>
      </trkpt>
      <trkpt lat="42.19564" lon="8.92511">
        <ele>1074.9</ele>
        <time>2014-07-19T10:12:15Z</time>
      </trkpt>
      <trkpt lat="42.19576" lon="8.92568">
        <ele>1076.4</ele>
        <time>2014-07-19T10:13:06Z</time>
      </trkpt>
      <trkpt lat="42.19585" lon="8.92595">
        <ele>1077.5</ele>
        <time>2014-07-19T10:13:39Z</time>
      </trkpt>
      <trkpt lat="42.19585" lon="8.92596">
        <ele>1077.5</ele>
        <time>2014-07-19T10:13:40Z</time>
      </trkpt>
      <trkpt lat="42.19604" lon="8.92648">
        <ele>1078.5</ele>
        <time>2014-07-19T10:14:32Z</time>
      </trkpt>
      <trkpt lat="42.19616" lon="8.92672">
        <ele>1079.4</ele>
        <time>2014-07-19T10:15:03Z</time>
      </trkpt>
      <trkpt lat="42.19617" lon="8.92673">
        <ele>1079.4</ele>
        <time>2014-07-19T10:15:04Z</time>
      </trkpt>
      <trkpt lat="42.19643" lon="8.92718">
        <ele>1079.4</ele>
        <time>2014-07-19T10:15:52Z</time>
      </trkpt>
      <trkpt lat="42.19657" lon="8.9274">
        <ele>1079.3</ele>
        <time>2014-07-19T10:16:15Z</time>
      </trkpt>
      <trkpt lat="42.19658" lon="8.92741">
        <ele>1079.3</ele>
        <time>2014-07-19T10:16:16Z</time>
      </trkpt>
      <trkpt lat="42.19684" lon="8.92787">
        <ele>1077.9</ele>
        <time>2014-07-19T10:17:10Z</time>
      </trkpt>
      <trkpt lat="42.197" lon="8.92809">
        <ele>1077.5</ele>
        <time>2014-07-19T10:17:36Z</time>
      </trkpt>
      <trkpt lat="42.197" lon="8.9281">
        <ele>1077.5</ele>
        <time>2014-07-19T10:17:37Z</time>
      </trkpt>
      <trkpt lat="42.19723" lon="8.92861">
        <ele>1096.8</ele>
        <time>2014-07-19T10:19:25Z</time>
      </trkpt>
      <trkpt lat="42.19723" lon="8.92861">
        <ele>1096.8</ele>
        <time>2014-07-19T10:19:26Z</time>
      </trkpt>
      <trkpt lat="42.19729" lon="8.92891">
        <ele>1109.3</ele>
        <time>2014-07-19T10:21:27Z</time>
      </trkpt>
      <trkpt lat="42.19756" lon="8.92936">
        <ele>1117.9</ele>
        <time>2014-07-19T10:22:30Z</time>
      </trkpt>
      <trkpt lat="42.19757" lon="8.92937">
        <ele>1118</ele>
        <time>2014-07-19T10:22:31Z</time>
      </trkpt>
      <trkpt lat="42.19789" lon="8.92974">
        <ele>1119</ele>
        <time>2014-07-19T10:23:25Z</time>
      </trkpt>
      <trkpt lat="42.19808" lon="8.92991">
        <ele>1118.5</ele>
        <time>2014-07-19T10:23:52Z</time>
      </trkpt>
      <trkpt lat="42.19808" lon="8.92992">
        <ele>1118.5</ele>
        <time>2014-07-19T10:23:53Z</time>
      </trkpt>
      <trkpt lat="42.19837" lon="8.93035">
        <ele>1132.5</ele>
        <time>2014-07-19T10:24:54Z</time>
      </trkpt>
      <trkpt lat="42.19837" lon="8.93036">
        <ele>1132.5</ele>
        <time>2014-07-19T10:24:55Z</time>
      </trkpt>
      <trkpt lat="42.19869" lon="8.93076">
        <ele>1139.5</ele>
        <time>2014-07-19T10:25:41Z</time>
      </trkpt>
      <trkpt lat="42.19879" lon="8.93103">
        <ele>1146.5</ele>
        <time>2014-07-19T10:26:14Z</time>
      </trkpt>
      <trkpt lat="42.1988" lon="8.93103">
        <ele>1146.5</ele>
        <time>2014-07-19T10:26:15Z</time>
      </trkpt>
      <trkpt lat="42.19884" lon="8.93132">
        <ele>1154.5</ele>
        <time>2014-07-19T10:28:36Z</time>
      </trkpt>
      <trkpt lat="42.19896" lon="8.93188">
        <ele>1160</ele>
        <time>2014-07-19T10:29:52Z</time>
      </trkpt>
      <trkpt lat="42.19896" lon="8.93189">
        <ele>1160</ele>
        <time>2014-07-19T10:29:53Z</time>
      </trkpt>
      <trkpt lat="42.1992" lon="8.93236">
        <ele>1163</ele>
        <time>2014-07-19T10:30:39Z</time>
      </trkpt>
      <trkpt lat="42.19941" lon="8.93246">
        <ele>1163</ele>
        <time>2014-07-19T10:31:03Z</time>
      </trkpt>
      <trkpt lat="42.19942" lon="8.93246">
        <ele>1163</ele>
        <time>2014-07-19T10:31:04Z</time>
      </trkpt>
      <trkpt lat="42.1998" lon="8.93273">
        <ele>1162</ele>
        <time>2014-07-19T10:32:00Z</time>
      </trkpt>
      <trkpt lat="42.19998" lon="8.9329">
        <ele>1160.8</ele>
        <time>2014-07-19T10:32:33Z</time>
      </trkpt>
      <trkpt lat="42.19999" lon="8.93291">
        <ele>1160.8</ele>
        <time>2014-07-19T10:32:34Z</time>
      </trkpt>
      <trkpt lat="42.20031" lon="8.93329">
        <ele>1160.5</ele>
        <time>2014-07-19T10:33:27Z</time>
      </trkpt>
      <trkpt lat="42.20048" lon="8.93347">
        <ele>1160.5</ele>
        <time>2014-07-19T10:33:54Z</time>
      </trkpt>
      <trkpt lat="42.20049" lon="8.93347">
        <ele>1160.5</ele>
        <time>2014-07-19T10:33:55Z</time>
      </trkpt>
      <trkpt lat="42.20066" lon="8.93367">
        <ele>1163.5</ele>
        <time>2014-07-19T10:35:00Z</time>
      </trkpt>
      <trkpt lat="42.20075" lon="8.93394">
        <ele>1175</ele>
        <time>2014-07-19T10:37:40Z</time>
      </trkpt>
      <trkpt lat="42.20036" lon="8.93407">
        <ele>1171.9</ele>
        <time>2014-07-19T10:38:55Z</time>
      </trkpt>
      <trkpt lat="42.20035" lon="8.93407">
        <ele>1171.8</ele>
        <time>2014-07-19T10:38:56Z</time>
      </trkpt>
      <trkpt lat="42.19998" lon="8.93387">
        <ele>1171</ele>
        <time>2014-07-19T10:39:26Z</time>
      </trkpt>
      <trkpt lat="42.2001" lon="8.93413">
        <ele>1207.9</ele>
        <time>2014-07-19T10:41:30Z</time>
      </trkpt>
      <trkpt lat="42.20011" lon="8.93413">
        <ele>1208.3</ele>
        <time>2014-07-19T10:41:31Z</time>
      </trkpt>
      <trkpt lat="42.20042" lon="8.93449">
        <ele>1226.8</ele>
        <time>2014-07-19T10:42:18Z</time>
      </trkpt>
      <trkpt lat="42.20054" lon="8.93474">
        <ele>1237</ele>
        <time>2014-07-19T10:43:24Z</time>
      </trkpt>
      <trkpt lat="42.20055" lon="8.93474">
        <ele>1237</ele>
        <time>2014-07-19T10:43:25Z</time>
      </trkpt>
      <trkpt lat="42.20092" lon="8.93504">
        <ele>1246.9</ele>
        <time>2014-07-19T10:46:00Z</time>
      </trkpt>
      <trkpt lat="42.20093" lon="8.93505">
        <ele>1247</ele>
        <time>2014-07-19T10:46:01Z</time>
      </trkpt>
      <trkpt lat="42.20125" lon="8.93543">
        <ele>1254.4</ele>
        <time>2014-07-19T10:47:20Z</time>
      </trkpt>
      <trkpt lat="42.20126" lon="8.93544">
        <ele>1254.5</ele>
        <time>2014-07-19T10:47:21Z</time>
      </trkpt>
      <trkpt lat="42.20156" lon="8.93583">
        <ele>1255.3</ele>
        <time>2014-07-19T10:48:00Z</time>
      </trkpt>
      <trkpt lat="42.20173" lon="8.93602">
        <ele>1255.5</ele>
        <time>2014-07-19T10:48:22Z</time>
      </trkpt>
      <trkpt lat="42.20173" lon="8.93603">
        <ele>1255.5</ele>
        <time>2014-07-19T10:48:23Z</time>
      </trkpt>
      <trkpt lat="42.20208" lon="8.93637">
        <ele>1253.5</ele>
        <time>2014-07-19T10:49:16Z</time>
      </trkpt>
      <trkpt lat="42.20223" lon="8.93659">
        <ele>1253</ele>
        <time>2014-07-19T10:50:44Z</time>
      </trkpt>
      <trkpt lat="42.20224" lon="8.93659">
        <ele>1253</ele>
        <time>2014-07-19T10:50:45Z</time>
      </trkpt>
      <trkpt lat="42.20267" lon="8.93661">
        <ele>1252.9</ele>
        <time>2014-07-19T10:51:30Z</time>
      </trkpt>
      <trkpt lat="42.20289" lon="8.93659">
        <ele>1253.8</ele>
        <time>2014-07-19T10:51:51Z</time>
      </trkpt>
      <trkpt lat="42.2029" lon="8.93659">
        <ele>1253.9</ele>
        <time>2014-07-19T10:51:52Z</time>
      </trkpt>
      <trkpt lat="42.20326" lon="8.93692">
        <ele>1254</ele>
        <time>2014-07-19T10:52:51Z</time>
      </trkpt>
      <trkpt lat="42.2034" lon="8.93715">
        <ele>1255.5</ele>
        <time>2014-07-19T10:53:28Z</time>
      </trkpt>
      <trkpt lat="42.2034" lon="8.93716">
        <ele>1255.8</ele>
        <time>2014-07-19T10:53:29Z</time>
      </trkpt>
      <trkpt lat="42.20379" lon="8.93741">
        <ele>1271.5</ele>
        <time>2014-07-19T10:54:54Z</time>
      </trkpt>
      <trkpt lat="42.2038" lon="8.93742">
        <ele>1271.5</ele>
        <time>2014-07-19T10:54:55Z</time>
      </trkpt>
      <trkpt lat="42.20403" lon="8.93792">
        <ele>1279.3</ele>
        <time>2014-07-19T10:55:52Z</time>
      </trkpt>
      <trkpt lat="42.20414" lon="8.93817">
        <ele>1287</ele>
        <time>2014-07-19T10:56:12Z</time>
      </trkpt>
      <trkpt lat="42.20414" lon="8.93818">
        <ele>1287.3</ele>
        <time>2014-07-19T10:56:13Z</time>
      </trkpt>
      <trkpt lat="42.2044" lon="8.93865">
        <ele>1300.8</ele>
        <time>2014-07-19T10:56:57Z</time>
      </trkpt>
      <trkpt lat="42.2045" lon="8.93891">
        <ele>1306.5</ele>
        <time>2014-07-19T10:57:21Z</time>
      </trkpt>
      <trkpt lat="42.2045" lon="8.93893">
        <ele>1306.8</ele>
        <time>2014-07-19T10:57:22Z</time>
      </trkpt>
      <trkpt lat="42.20462" lon="8.93949">
        <ele>1316.8</ele>
        <time>2014-07-19T10:58:20Z</time>
      </trkpt>
      <trkpt lat="42.20463" lon="8.93979">
        <ele>1318.8</ele>
        <time>2014-07-19T10:58:40Z</time>
      </trkpt>
      <trkpt lat="42.20464" lon="8.9398">
        <ele>1318.9</ele>
        <time>2014-07-19T10:58:41Z</time>
      </trkpt>
      <trkpt lat="42.20463" lon="8.94035">
        <ele>1318.8</ele>
        <time>2014-07-19T10:59:43Z</time>
      </trkpt>
      <trkpt lat="42.20463" lon="8.94036">
        <ele>1318.8</ele>
        <time>2014-07-19T10:59:44Z</time>
      </trkpt>
      <trkpt lat="42.20461" lon="8.94095">
        <ele>1319.5</ele>
        <time>2014-07-19T11:00:44Z</time>
      </trkpt>
      <trkpt lat="42.20461" lon="8.94096">
        <ele>1319.5</ele>
        <time>2014-07-19T11:00:45Z</time>
      </trkpt>
      <trkpt lat="42.20454" lon="8.94154">
        <ele>1321</ele>
        <time>2014-07-19T11:01:42Z</time>
      </trkpt>
      <trkpt lat="42.20453" lon="8.94184">
        <ele>1323.3</ele>
        <time>2014-07-19T11:02:09Z</time>
      </trkpt>
      <trkpt lat="42.20453" lon="8.94185">
        <ele>1323.3</ele>
        <time>2014-07-19T11:02:10Z</time>
      </trkpt>
      <trkpt lat="42.2046" lon="8.94244">
        <ele>1324</ele>
        <time>2014-07-19T11:08:38Z</time>
      </trkpt>
      <trkpt lat="42.2046" lon="8.94244">
        <ele>1324</ele>
        <time>2014-07-19T11:08:39Z</time>
      </trkpt>
      <trkpt lat="42.2049" lon="8.94288">
        <ele>1323</ele>
        <time>2014-07-19T11:09:41Z</time>
      </trkpt>
      <trkpt lat="42.2049" lon="8.94288">
        <ele>1323</ele>
        <time>2014-07-19T11:09:42Z</time>
      </trkpt>
      <trkpt lat="42.20516" lon="8.94335">
        <ele>1324.4</ele>
        <time>2014-07-19T11:10:30Z</time>
      </trkpt>
      <trkpt lat="42.20534" lon="8.94352">
        <ele>1324.5</ele>
        <time>2014-07-19T11:10:57Z</time>
      </trkpt>
      <trkpt lat="42.20535" lon="8.94353">
        <ele>1324.5</ele>
        <time>2014-07-19T11:10:58Z</time>
      </trkpt>
      <trkpt lat="42.20552" lon="8.94406">
        <ele>1324.5</ele>
        <time>2014-07-19T11:11:49Z</time>
      </trkpt>
      <trkpt lat="42.20563" lon="8.94431">
        <ele>1324.3</ele>
        <time>2014-07-19T11:12:06Z</time>
      </trkpt>
      <trkpt lat="42.20564" lon="8.94432">
        <ele>1324.4</ele>
        <time>2014-07-19T11:12:07Z</time>
      </trkpt>
      <trkpt lat="42.20554" lon="8.94475">
        <ele>1325.4</ele>
        <time>2014-07-19T11:13:13Z</time>
      </trkpt>
      <trkpt lat="42.20554" lon="8.94475">
        <ele>1325.4</ele>
        <time>2014-07-19T11:13:14Z</time>
      </trkpt>
      <trkpt lat="42.20533" lon="8.94467">
        <ele>1324.9</ele>
        <time>2014-07-19T11:14:52Z</time>
      </trkpt>
      <trkpt lat="42.20519" lon="8.94508">
        <ele>1321.5</ele>
        <time>2014-07-19T11:39:09Z</time>
      </trkpt>
      <trkpt lat="42.20519" lon="8.94509">
        <ele>1321.5</ele>
        <time>2014-07-19T11:39:10Z</time>
      </trkpt>
      <trkpt lat="42.20525" lon="8.94479">
        <ele>1321</ele>
        <time>2014-07-19T11:44:49Z</time>
      </trkpt>
      <trkpt lat="42.20502" lon="8.94485">
        <ele>1320.3</ele>
        <time>2014-07-19T11:47:56Z</time>
      </trkpt>
      <trkpt lat="42.20524" lon="8.94476">
        <ele>1325.3</ele>
        <time>2014-07-19T11:57:35Z</time>
      </trkpt>
      <trkpt lat="42.20511" lon="8.94501">
        <ele>1326.5</ele>
        <time>2014-07-19T12:00:35Z</time>
      </trkpt>
      <trkpt lat="42.20519" lon="8.94471">
        <ele>1329</ele>
        <time>2014-07-19T12:04:46Z</time>
      </trkpt>
      <trkpt lat="42.20499" lon="8.94486">
        <ele>1328.3</ele>
        <time>2014-07-19T12:08:08Z</time>
      </trkpt>
      <trkpt lat="42.20521" lon="8.94472">
        <ele>1327.5</ele>
        <time>2014-07-19T12:09:15Z</time>
      </trkpt>
      <trkpt lat="42.20513" lon="8.94502">
        <ele>1327</ele>
        <time>2014-07-19T12:15:15Z</time>
      </trkpt>
      <trkpt lat="42.20474" lon="8.94526">
        <ele>1323.8</ele>
        <time>2014-07-19T12:16:19Z</time>
      </trkpt>
      <trkpt lat="42.20473" lon="8.94526">
        <ele>1323.8</ele>
        <time>2014-07-19T12:16:20Z</time>
      </trkpt>
      <trkpt lat="42.20467" lon="8.94555">
        <ele>1324.4</ele>
        <time>2014-07-19T12:17:49Z</time>
      </trkpt>
      <trkpt lat="42.20438" lon="8.94599">
        <ele>1326.5</ele>
        <time>2014-07-19T12:18:55Z</time>
      </trkpt>
      <trkpt lat="42.20437" lon="8.94599">
        <ele>1326.5</ele>
        <time>2014-07-19T12:18:56Z</time>
      </trkpt>
      <trkpt lat="42.2041" lon="8.94643">
        <ele>1325.8</ele>
        <time>2014-07-19T12:20:04Z</time>
      </trkpt>
      <trkpt lat="42.2041" lon="8.94645">
        <ele>1325.8</ele>
        <time>2014-07-19T12:20:05Z</time>
      </trkpt>
      <trkpt lat="42.204" lon="8.947">
        <ele>1326</ele>
        <time>2014-07-19T12:21:00Z</time>
      </trkpt>
      <trkpt lat="42.20387" lon="8.94724">
        <ele>1324.3</ele>
        <time>2014-07-19T12:21:46Z</time>
      </trkpt>
      <trkpt lat="42.20386" lon="8.94725">
        <ele>1324</ele>
        <time>2014-07-19T12:21:47Z</time>
      </trkpt>
      <trkpt lat="42.20405" lon="8.94706">
        <ele>1320</ele>
        <time>2014-07-19T12:23:43Z</time>
      </trkpt>
      <trkpt lat="42.20448" lon="8.94714">
        <ele>1318.5</ele>
        <time>2014-07-19T12:24:39Z</time>
      </trkpt>
      <trkpt lat="42.20469" lon="8.9471">
        <ele>1318.8</ele>
        <time>2014-07-19T12:25:04Z</time>
      </trkpt>
      <trkpt lat="42.2047" lon="8.94709">
        <ele>1318.8</ele>
        <time>2014-07-19T12:25:05Z</time>
      </trkpt>
      <trkpt lat="42.20513" lon="8.94704">
        <ele>1321</ele>
        <time>2014-07-19T12:25:58Z</time>
      </trkpt>
      <trkpt lat="42.20534" lon="8.94696">
        <ele>1322</ele>
        <time>2014-07-19T12:26:18Z</time>
      </trkpt>
      <trkpt lat="42.20535" lon="8.94696">
        <ele>1322</ele>
        <time>2014-07-19T12:26:19Z</time>
      </trkpt>
      <trkpt lat="42.20548" lon="8.94725">
        <ele>1321.9</ele>
        <time>2014-07-19T12:27:04Z</time>
      </trkpt>
      <trkpt lat="42.20569" lon="8.94719">
        <ele>1322.8</ele>
        <time>2014-07-19T12:28:19Z</time>
      </trkpt>
      <trkpt lat="42.2057" lon="8.94719">
        <ele>1322.8</ele>
        <time>2014-07-19T12:28:20Z</time>
      </trkpt>
      <trkpt lat="42.20602" lon="8.94756">
        <ele>1322</ele>
        <time>2014-07-19T12:29:14Z</time>
      </trkpt>
      <trkpt lat="42.20616" lon="8.9478">
        <ele>1323</ele>
        <time>2014-07-19T12:30:07Z</time>
      </trkpt>
      <trkpt lat="42.20616" lon="8.9478">
        <ele>1323</ele>
        <time>2014-07-19T12:30:08Z</time>
      </trkpt>
      <trkpt lat="42.20647" lon="8.94821">
        <ele>1324.8</ele>
        <time>2014-07-19T12:31:13Z</time>
      </trkpt>
      <trkpt lat="42.20648" lon="8.94823">
        <ele>1324.8</ele>
        <time>2014-07-19T12:31:14Z</time>
      </trkpt>
      <trkpt lat="42.20671" lon="8.9487">
        <ele>1326</ele>
        <time>2014-07-19T12:32:00Z</time>
      </trkpt>
      <trkpt lat="42.20679" lon="8.94898">
        <ele>1326.8</ele>
        <time>2014-07-19T12:32:23Z</time>
      </trkpt>
      <trkpt lat="42.2068" lon="8.94899">
        <ele>1326.8</ele>
        <time>2014-07-19T12:32:24Z</time>
      </trkpt>
      <trkpt lat="42.20713" lon="8.94938">
        <ele>1328.5</ele>
        <time>2014-07-19T12:33:21Z</time>
      </trkpt>
      <trkpt lat="42.20733" lon="8.94948">
        <ele>1330.3</ele>
        <time>2014-07-19T12:35:56Z</time>
      </trkpt>
      <trkpt lat="42.20734" lon="8.94949">
        <ele>1330.3</ele>
        <time>2014-07-19T12:35:57Z</time>
      </trkpt>
      <trkpt lat="42.20771" lon="8.94977">
        <ele>1331.5</ele>
        <time>2014-07-19T12:36:32Z</time>
      </trkpt>
      <trkpt lat="42.20793" lon="8.94986">
        <ele>1333</ele>
        <time>2014-07-19T12:36:59Z</time>
      </trkpt>
      <trkpt lat="42.20794" lon="8.94986">
        <ele>1333</ele>
        <time>2014-07-19T12:37:00Z</time>
      </trkpt>
      <trkpt lat="42.20833" lon="8.95012">
        <ele>1335</ele>
        <time>2014-07-19T12:38:08Z</time>
      </trkpt>
      <trkpt lat="42.20833" lon="8.95012">
        <ele>1335</ele>
        <time>2014-07-19T12:38:09Z</time>
      </trkpt>
      <trkpt lat="42.20865" lon="8.9505">
        <ele>1337.5</ele>
        <time>2014-07-19T12:39:27Z</time>
      </trkpt>
      <trkpt lat="42.20866" lon="8.95051">
        <ele>1337.5</ele>
        <time>2014-07-19T12:39:28Z</time>
      </trkpt>
      <trkpt lat="42.20899" lon="8.95089">
        <ele>1339</ele>
        <time>2014-07-19T12:40:17Z</time>
      </trkpt>
      <trkpt lat="42.20912" lon="8.95112">
        <ele>1339.8</ele>
        <time>2014-07-19T12:40:33Z</time>
      </trkpt>
      <trkpt lat="42.20914" lon="8.95112">
        <ele>1339.9</ele>
        <time>2014-07-19T12:40:34Z</time>
      </trkpt>
      <trkpt lat="42.20953" lon="8.95135">
        <ele>1341</ele>
        <time>2014-07-19T12:41:10Z</time>
      </trkpt>
      <trkpt lat="42.20971" lon="8.95153">
        <ele>1341.5</ele>
        <time>2014-07-19T12:41:50Z</time>
      </trkpt>
      <trkpt lat="42.20971" lon="8.95153">
        <ele>1341.5</ele>
        <time>2014-07-19T12:41:51Z</time>
      </trkpt>
      <trkpt lat="42.21002" lon="8.95192">
        <ele>1344</ele>
        <time>2014-07-19T12:42:58Z</time>
      </trkpt>
      <trkpt lat="42.21003" lon="8.95193">
        <ele>1344</ele>
        <time>2014-07-19T12:42:59Z</time>
      </trkpt>
      <trkpt lat="42.21032" lon="8.95234">
        <ele>1341.5</ele>
        <time>2014-07-19T12:44:19Z</time>
      </trkpt>
      <trkpt lat="42.21033" lon="8.95234">
        <ele>1341.5</ele>
        <time>2014-07-19T12:44:20Z</time>
      </trkpt>
      <trkpt lat="42.21074" lon="8.95255">
        <ele>1340</ele>
        <time>2014-07-19T12:45:46Z</time>
      </trkpt>
      <trkpt lat="42.21074" lon="8.95255">
        <ele>1340</ele>
        <time>2014-07-19T12:45:47Z</time>
      </trkpt>
      <trkpt lat="42.2111" lon="8.95284">
        <ele>1342</ele>
        <time>2014-07-19T12:46:27Z</time>
      </trkpt>
      <trkpt lat="42.21125" lon="8.95306">
        <ele>1342.3</ele>
        <time>2014-07-19T12:46:49Z</time>
      </trkpt>
      <trkpt lat="42.21126" lon="8.95307">
        <ele>1342.3</ele>
        <time>2014-07-19T12:46:50Z</time>
      </trkpt>
      <trkpt lat="42.2116" lon="8.95344">
        <ele>1341.4</ele>
        <time>2014-07-19T12:48:23Z</time>
      </trkpt>
      <trkpt lat="42.21161" lon="8.95345">
        <ele>1341.4</ele>
        <time>2014-07-19T12:48:24Z</time>
      </trkpt>
      <trkpt lat="42.21196" lon="8.95376">
        <ele>1344.4</ele>
        <time>2014-07-19T12:49:20Z</time>
      </trkpt>
      <trkpt lat="42.21202" lon="8.95405">
        <ele>1347.3</ele>
        <time>2014-07-19T12:49:43Z</time>
      </trkpt>
      <trkpt lat="42.21202" lon="8.95406">
        <ele>1347.4</ele>
        <time>2014-07-19T12:49:44Z</time>
      </trkpt>
      <trkpt lat="42.21217" lon="8.95459">
        <ele>1350.9</ele>
        <time>2014-07-19T12:51:26Z</time>
      </trkpt>
      <trkpt lat="42.21218" lon="8.95459">
        <ele>1350.9</ele>
        <time>2014-07-19T12:51:27Z</time>
      </trkpt>
      <trkpt lat="42.21243" lon="8.95508">
        <ele>1351</ele>
        <time>2014-07-19T12:52:29Z</time>
      </trkpt>
      <trkpt lat="42.21243" lon="8.95509">
        <ele>1351</ele>
        <time>2014-07-19T12:52:30Z</time>
      </trkpt>
      <trkpt lat="42.21256" lon="8.95565">
        <ele>1344.9</ele>
        <time>2014-07-19T12:53:33Z</time>
      </trkpt>
      <trkpt lat="42.21255" lon="8.95566">
        <ele>1344.9</ele>
        <time>2014-07-19T12:53:34Z</time>
      </trkpt>
      <trkpt lat="42.21271" lon="8.95621">
        <ele>1340.5</ele>
        <time>2014-07-19T12:54:29Z</time>
      </trkpt>
      <trkpt lat="42.21278" lon="8.95648">
        <ele>1340.4</ele>
        <time>2014-07-19T12:55:04Z</time>
      </trkpt>
      <trkpt lat="42.21279" lon="8.95649">
        <ele>1340.4</ele>
        <time>2014-07-19T12:55:05Z</time>
      </trkpt>
      <trkpt lat="42.21291" lon="8.95704">
        <ele>1339.8</ele>
        <time>2014-07-19T12:55:51Z</time>
      </trkpt>
      <trkpt lat="42.21293" lon="8.95734">
        <ele>1338.8</ele>
        <time>2014-07-19T12:56:33Z</time>
      </trkpt>
      <trkpt lat="42.21293" lon="8.95735">
        <ele>1338.8</ele>
        <time>2014-07-19T12:56:34Z</time>
      </trkpt>
      <trkpt lat="42.21322" lon="8.95779">
        <ele>1338.8</ele>
        <time>2014-07-19T12:57:36Z</time>
      </trkpt>
      <trkpt lat="42.21323" lon="8.95779">
        <ele>1338.9</ele>
        <time>2014-07-19T12:57:37Z</time>
      </trkpt>
      <trkpt lat="42.21341" lon="8.95796">
        <ele>1333.5</ele>
        <time>2014-07-19T13:04:58Z</time>
      </trkpt>
      <trkpt lat="42.21338" lon="8.95827">
        <ele>1334</ele>
        <time>2014-07-19T13:06:52Z</time>
      </trkpt>
      <trkpt lat="42.21338" lon="8.95824">
        <ele>1333.3</ele>
        <time>2014-07-19T13:08:54Z</time>
      </trkpt>
      <trkpt lat="42.21338" lon="8.95822">
        <ele>1333.3</ele>
        <time>2014-07-19T13:08:55Z</time>
      </trkpt>
      <trkpt lat="42.21348" lon="8.95785">
        <ele>1328</ele>
        <time>2014-07-19T13:12:19Z</time>
      </trkpt>
      <trkpt lat="42.21349" lon="8.95785">
        <ele>1328</ele>
        <time>2014-07-19T13:12:20Z</time>
      </trkpt>
      <trkpt lat="42.21326" lon="8.95791">
        <ele>1325.4</ele>
        <time>2014-07-19T13:15:37Z</time>
      </trkpt>
      <trkpt lat="42.21343" lon="8.95811">
        <ele>1341.3</ele>
        <time>2014-07-19T13:51:52Z</time>
      </trkpt>
      <trkpt lat="42.21364" lon="8.95864">
        <ele>1348.8</ele>
        <time>2014-07-19T13:52:56Z</time>
      </trkpt>
      <trkpt lat="42.21364" lon="8.95865">
        <ele>1348.9</ele>
        <time>2014-07-19T13:52:57Z</time>
      </trkpt>
      <trkpt lat="42.21397" lon="8.95903">
        <ele>1350.5</ele>
        <time>2014-07-19T13:54:25Z</time>
      </trkpt>
      <trkpt lat="42.21398" lon="8.95902">
        <ele>1350.5</ele>
        <time>2014-07-19T13:54:26Z</time>
      </trkpt>
      <trkpt lat="42.21411" lon="8.95927">
        <ele>1347.9</ele>
        <time>2014-07-19T13:56:49Z</time>
      </trkpt>
      <trkpt lat="42.21405" lon="8.95913">
        <ele>1349</ele>
        <time>2014-07-19T13:57:36Z</time>
      </trkpt>
      <trkpt lat="42.21383" lon="8.95913">
        <ele>1349</ele>
        <time>2014-07-19T13:59:43Z</time>
      </trkpt>
      <trkpt lat="42.21382" lon="8.95912">
        <ele>1349</ele>
        <time>2014-07-19T13:59:44Z</time>
      </trkpt>
      <trkpt lat="42.21355" lon="8.95867">
        <ele>1349</ele>
        <time>2014-07-19T14:00:54Z</time>
      </trkpt>
      <trkpt lat="42.21354" lon="8.95865">
        <ele>1349</ele>
        <time>2014-07-19T14:00:55Z</time>
      </trkpt>
      <trkpt lat="42.21334" lon="8.95816">
        <ele>1348.5</ele>
        <time>2014-07-19T14:01:46Z</time>
      </trkpt>
      <trkpt lat="42.21334" lon="8.95787">
        <ele>1348.5</ele>
        <time>2014-07-19T14:02:13Z</time>
      </trkpt>
      <trkpt lat="42.21334" lon="8.95786">
        <ele>1348.5</ele>
        <time>2014-07-19T14:02:14Z</time>
      </trkpt>
      <trkpt lat="42.21315" lon="8.95733">
        <ele>1347.8</ele>
        <time>2014-07-19T14:03:12Z</time>
      </trkpt>
      <trkpt lat="42.21301" lon="8.95709">
        <ele>1347.4</ele>
        <time>2014-07-19T14:03:39Z</time>
      </trkpt>
      <trkpt lat="42.21301" lon="8.95708">
        <ele>1347.4</ele>
        <time>2014-07-19T14:03:40Z</time>
      </trkpt>
      <trkpt lat="42.21281" lon="8.95655">
        <ele>1346</ele>
        <time>2014-07-19T14:04:44Z</time>
      </trkpt>
      <trkpt lat="42.21281" lon="8.95654">
        <ele>1346</ele>
        <time>2014-07-19T14:04:45Z</time>
      </trkpt>
      <trkpt lat="42.21267" lon="8.956">
        <ele>1344</ele>
        <time>2014-07-19T14:05:53Z</time>
      </trkpt>
      <trkpt lat="42.21266" lon="8.95599">
        <ele>1344</ele>
        <time>2014-07-19T14:05:54Z</time>
      </trkpt>
      <trkpt lat="42.21248" lon="8.95546">
        <ele>1344</ele>
        <time>2014-07-19T14:06:42Z</time>
      </trkpt>
      <trkpt lat="42.2124" lon="8.95519">
        <ele>1344.5</ele>
        <time>2014-07-19T14:07:11Z</time>
      </trkpt>
      <trkpt lat="42.2124" lon="8.95518">
        <ele>1344.5</ele>
        <time>2014-07-19T14:07:12Z</time>
      </trkpt>
      <trkpt lat="42.21219" lon="8.95467">
        <ele>1345.9</ele>
        <time>2014-07-19T14:08:00Z</time>
      </trkpt>
      <trkpt lat="42.21206" lon="8.95442">
        <ele>1346</ele>
        <time>2014-07-19T14:08:25Z</time>
      </trkpt>
      <trkpt lat="42.21206" lon="8.95441">
        <ele>1346</ele>
        <time>2014-07-19T14:08:26Z</time>
      </trkpt>
      <trkpt lat="42.21197" lon="8.95384">
        <ele>1347.5</ele>
        <time>2014-07-19T14:09:12Z</time>
      </trkpt>
      <trkpt lat="42.21183" lon="8.95362">
        <ele>1346.8</ele>
        <time>2014-07-19T14:09:54Z</time>
      </trkpt>
      <trkpt lat="42.21182" lon="8.9536">
        <ele>1346.5</ele>
        <time>2014-07-19T14:09:55Z</time>
      </trkpt>
      <trkpt lat="42.21164" lon="8.95344">
        <ele>1346.5</ele>
        <time>2014-07-19T14:11:10Z</time>
      </trkpt>
      <trkpt lat="42.21131" lon="8.95308">
        <ele>1346.4</ele>
        <time>2014-07-19T14:12:11Z</time>
      </trkpt>
      <trkpt lat="42.21131" lon="8.95308">
        <ele>1346.4</ele>
        <time>2014-07-19T14:12:12Z</time>
      </trkpt>
      <trkpt lat="42.21094" lon="8.95278">
        <ele>1346</ele>
        <time>2014-07-19T14:13:03Z</time>
      </trkpt>
      <trkpt lat="42.21076" lon="8.95261">
        <ele>1346.5</ele>
        <time>2014-07-19T14:13:35Z</time>
      </trkpt>
      <trkpt lat="42.21075" lon="8.95259">
        <ele>1346.5</ele>
        <time>2014-07-19T14:13:36Z</time>
      </trkpt>
      <trkpt lat="42.21043" lon="8.95222">
        <ele>1348.5</ele>
        <time>2014-07-19T14:14:27Z</time>
      </trkpt>
      <trkpt lat="42.21024" lon="8.95209">
        <ele>1350</ele>
        <time>2014-07-19T14:14:49Z</time>
      </trkpt>
      <trkpt lat="42.21023" lon="8.95208">
        <ele>1350</ele>
        <time>2014-07-19T14:14:50Z</time>
      </trkpt>
      <trkpt lat="42.20992" lon="8.95168">
        <ele>1351.8</ele>
        <time>2014-07-19T14:15:54Z</time>
      </trkpt>
      <trkpt lat="42.20992" lon="8.95167">
        <ele>1351.8</ele>
        <time>2014-07-19T14:15:55Z</time>
      </trkpt>
      <trkpt lat="42.20955" lon="8.95135">
        <ele>1353.5</ele>
        <time>2014-07-19T14:16:50Z</time>
      </trkpt>
      <trkpt lat="42.20937" lon="8.95118">
        <ele>1354</ele>
        <time>2014-07-19T14:17:06Z</time>
      </trkpt>
      <trkpt lat="42.20936" lon="8.95117">
        <ele>1354</ele>
        <time>2014-07-19T14:17:07Z</time>
      </trkpt>
      <trkpt lat="42.20903" lon="8.95079">
        <ele>1355.5</ele>
        <time>2014-07-19T14:17:57Z</time>
      </trkpt>
      <trkpt lat="42.20883" lon="8.95067">
        <ele>1355</ele>
        <time>2014-07-19T14:18:28Z</time>
      </trkpt>
      <trkpt lat="42.20882" lon="8.95067">
        <ele>1354.9</ele>
        <time>2014-07-19T14:18:29Z</time>
      </trkpt>
      <trkpt lat="42.20848" lon="8.95032">
        <ele>1353.3</ele>
        <time>2014-07-19T14:19:27Z</time>
      </trkpt>
      <trkpt lat="42.20832" lon="8.95011">
        <ele>1352.5</ele>
        <time>2014-07-19T14:20:06Z</time>
      </trkpt>
      <trkpt lat="42.20832" lon="8.9501">
        <ele>1352.5</ele>
        <time>2014-07-19T14:20:07Z</time>
      </trkpt>
      <trkpt lat="42.20811" lon="8.94959">
        <ele>1355</ele>
        <time>2014-07-19T14:21:31Z</time>
      </trkpt>
      <trkpt lat="42.20811" lon="8.94958">
        <ele>1355</ele>
        <time>2014-07-19T14:21:32Z</time>
      </trkpt>
      <trkpt lat="42.20787" lon="8.9496">
        <ele>1354.5</ele>
        <time>2014-07-19T14:23:09Z</time>
      </trkpt>
      <trkpt lat="42.20747" lon="8.94944">
        <ele>1350.9</ele>
        <time>2014-07-19T14:24:08Z</time>
      </trkpt>
      <trkpt lat="42.20729" lon="8.94927">
        <ele>1350.5</ele>
        <time>2014-07-19T14:24:41Z</time>
      </trkpt>
      <trkpt lat="42.20728" lon="8.94927">
        <ele>1350.5</ele>
        <time>2014-07-19T14:24:42Z</time>
      </trkpt>
      <trkpt lat="42.20691" lon="8.94898">
        <ele>1349.8</ele>
        <time>2014-07-19T14:25:30Z</time>
      </trkpt>
      <trkpt lat="42.20674" lon="8.9488">
        <ele>1348.8</ele>
        <time>2014-07-19T14:25:58Z</time>
      </trkpt>
      <trkpt lat="42.20674" lon="8.94879">
        <ele>1348.5</ele>
        <time>2014-07-19T14:25:59Z</time>
      </trkpt>
      <trkpt lat="42.20654" lon="8.94928">
        <ele>1350</ele>
        <time>2014-07-19T14:27:31Z</time>
      </trkpt>
      <trkpt lat="42.20653" lon="8.94928">
        <ele>1350.3</ele>
        <time>2014-07-19T14:27:32Z</time>
      </trkpt>
      <trkpt lat="42.20657" lon="8.94987">
        <ele>1352.5</ele>
        <time>2014-07-19T14:29:07Z</time>
      </trkpt>
      <trkpt lat="42.20657" lon="8.94988">
        <ele>1352.5</ele>
        <time>2014-07-19T14:29:08Z</time>
      </trkpt>
      <trkpt lat="42.20678" lon="8.95031">
        <ele>1352</ele>
        <time>2014-07-19T14:30:35Z</time>
      </trkpt>
      <trkpt lat="42.20678" lon="8.95032">
        <ele>1352</ele>
        <time>2014-07-19T14:30:36Z</time>
      </trkpt>
      <trkpt lat="42.20674" lon="8.9509">
        <ele>1352.8</ele>
        <time>2014-07-19T14:31:26Z</time>
      </trkpt>
      <trkpt lat="42.20669" lon="8.95117">
        <ele>1353</ele>
        <time>2014-07-19T14:31:45Z</time>
      </trkpt>
      <trkpt lat="42.20669" lon="8.95119">
        <ele>1353</ele>
        <time>2014-07-19T14:31:46Z</time>
      </trkpt>
      <trkpt lat="42.2068" lon="8.95145">
        <ele>1352.5</ele>
        <time>2014-07-19T14:32:53Z</time>
      </trkpt>
      <trkpt lat="42.20695" lon="8.952">
        <ele>1351.4</ele>
        <time>2014-07-19T14:33:33Z</time>
      </trkpt>
      <trkpt lat="42.20708" lon="8.95224">
        <ele>1351</ele>
        <time>2014-07-19T14:33:49Z</time>
      </trkpt>
      <trkpt lat="42.20708" lon="8.95254">
        <ele>1351.9</ele>
        <time>2014-07-19T14:34:15Z</time>
      </trkpt>
      <trkpt lat="42.20708" lon="8.95255">
        <ele>1351.9</ele>
        <time>2014-07-19T14:34:16Z</time>
      </trkpt>
      <trkpt lat="42.20684" lon="8.95302">
        <ele>1352.4</ele>
        <time>2014-07-19T14:35:18Z</time>
      </trkpt>
      <trkpt lat="42.20684" lon="8.95303">
        <ele>1352.4</ele>
        <time>2014-07-19T14:35:19Z</time>
      </trkpt>
      <trkpt lat="42.20686" lon="8.9536">
        <ele>1352.5</ele>
        <time>2014-07-19T14:36:04Z</time>
      </trkpt>
      <trkpt lat="42.20696" lon="8.95386">
        <ele>1352.5</ele>
        <time>2014-07-19T14:36:20Z</time>
      </trkpt>
      <trkpt lat="42.20696" lon="8.95387">
        <ele>1352.5</ele>
        <time>2014-07-19T14:36:21Z</time>
      </trkpt>
      <trkpt lat="42.20694" lon="8.95443">
        <ele>1352</ele>
        <time>2014-07-19T14:37:16Z</time>
      </trkpt>
      <trkpt lat="42.20678" lon="8.95463">
        <ele>1351.8</ele>
        <time>2014-07-19T14:37:35Z</time>
      </trkpt>
      <trkpt lat="42.20677" lon="8.95463">
        <ele>1351.8</ele>
        <time>2014-07-19T14:37:36Z</time>
      </trkpt>
      <trkpt lat="42.20669" lon="8.95516">
        <ele>1351.5</ele>
        <time>2014-07-19T14:38:33Z</time>
      </trkpt>
      <trkpt lat="42.20664" lon="8.95545">
        <ele>1351.5</ele>
        <time>2014-07-19T14:39:05Z</time>
      </trkpt>
      <trkpt lat="42.20665" lon="8.95547">
        <ele>1351.5</ele>
        <time>2014-07-19T14:39:06Z</time>
      </trkpt>
      <trkpt lat="42.20685" lon="8.95597">
        <ele>1351.5</ele>
        <time>2014-07-19T14:39:58Z</time>
      </trkpt>
      <trkpt lat="42.20692" lon="8.95625">
        <ele>1352</ele>
        <time>2014-07-19T14:40:57Z</time>
      </trkpt>
      <trkpt lat="42.20692" lon="8.95626">
        <ele>1352</ele>
        <time>2014-07-19T14:40:58Z</time>
      </trkpt>
      <trkpt lat="42.20717" lon="8.95657">
        <ele>1352.4</ele>
        <time>2014-07-19T14:42:17Z</time>
      </trkpt>
      <trkpt lat="42.20716" lon="8.95658">
        <ele>1352.4</ele>
        <time>2014-07-19T14:42:18Z</time>
      </trkpt>
      <trkpt lat="42.2068" lon="8.95691">
        <ele>1352.9</ele>
        <time>2014-07-19T14:43:18Z</time>
      </trkpt>
      <trkpt lat="42.2068" lon="8.95692">
        <ele>1352.9</ele>
        <time>2014-07-19T14:43:19Z</time>
      </trkpt>
      <trkpt lat="42.20674" lon="8.95749">
        <ele>1353.3</ele>
        <time>2014-07-19T14:44:49Z</time>
      </trkpt>
      <trkpt lat="42.20674" lon="8.95749">
        <ele>1353.3</ele>
        <time>2014-07-19T14:44:50Z</time>
      </trkpt>
      <trkpt lat="42.20651" lon="8.95799">
        <ele>1354.3</ele>
        <time>2014-07-19T14:46:11Z</time>
      </trkpt>
      <trkpt lat="42.20651" lon="8.958">
        <ele>1354.3</ele>
        <time>2014-07-19T14:46:12Z</time>
      </trkpt>
      <trkpt lat="42.20628" lon="8.95795">
        <ele>1358.8</ele>
        <time>2014-07-19T14:47:33Z</time>
      </trkpt>
      <trkpt lat="42.20593" lon="8.95828">
        <ele>1363</ele>
        <time>2014-07-19T14:48:40Z</time>
      </trkpt>
      <trkpt lat="42.20593" lon="8.95829">
        <ele>1363.3</ele>
        <time>2014-07-19T14:48:41Z</time>
      </trkpt>
      <trkpt lat="42.20569" lon="8.95876">
        <ele>1366.5</ele>
        <time>2014-07-19T14:50:47Z</time>
      </trkpt>
      <trkpt lat="42.20568" lon="8.95878">
        <ele>1366.5</ele>
        <time>2014-07-19T14:50:48Z</time>
      </trkpt>
      <trkpt lat="42.20586" lon="8.95931">
        <ele>1368.9</ele>
        <time>2014-07-19T14:51:39Z</time>
      </trkpt>
      <trkpt lat="42.20607" lon="8.95942">
        <ele>1371.9</ele>
        <time>2014-07-19T14:52:01Z</time>
      </trkpt>
      <trkpt lat="42.20608" lon="8.95942">
        <ele>1372</ele>
        <time>2014-07-19T14:52:02Z</time>
      </trkpt>
      <trkpt lat="42.20646" lon="8.95966">
        <ele>1371</ele>
        <time>2014-07-19T14:52:49Z</time>
      </trkpt>
      <trkpt lat="42.20667" lon="8.95975">
        <ele>1369</ele>
        <time>2014-07-19T14:53:14Z</time>
      </trkpt>
      <trkpt lat="42.20668" lon="8.95975">
        <ele>1368.9</ele>
        <time>2014-07-19T14:53:15Z</time>
      </trkpt>
      <trkpt lat="42.20709" lon="8.95991">
        <ele>1365</ele>
        <time>2014-07-19T14:53:56Z</time>
      </trkpt>
      <trkpt lat="42.20728" lon="8.96007">
        <ele>1363</ele>
        <time>2014-07-19T14:54:19Z</time>
      </trkpt>
      <trkpt lat="42.20728" lon="8.96007">
        <ele>1363</ele>
        <time>2014-07-19T14:54:20Z</time>
      </trkpt>
      <trkpt lat="42.20749" lon="8.96019">
        <ele>1362</ele>
        <time>2014-07-19T14:55:41Z</time>
      </trkpt>
      <trkpt lat="42.20725" lon="8.96016">
        <ele>1380</ele>
        <time>2014-07-19T14:59:40Z</time>
      </trkpt>
      <trkpt lat="42.20691" lon="8.95984">
        <ele>1372</ele>
        <time>2014-07-19T15:01:21Z</time>
      </trkpt>
      <trkpt lat="42.2069" lon="8.95983">
        <ele>1372</ele>
        <time>2014-07-19T15:01:22Z</time>
      </trkpt>
      <trkpt lat="42.2065" lon="8.95967">
        <ele>1369.9</ele>
        <time>2014-07-19T15:02:16Z</time>
      </trkpt>
      <trkpt lat="42.2063" lon="8.95956">
        <ele>1369</ele>
        <time>2014-07-19T15:02:40Z</time>
      </trkpt>
      <trkpt lat="42.20629" lon="8.95956">
        <ele>1369</ele>
        <time>2014-07-19T15:02:41Z</time>
      </trkpt>
      <trkpt lat="42.20589" lon="8.95937">
        <ele>1367.9</ele>
        <time>2014-07-19T15:04:57Z</time>
      </trkpt>
      <trkpt lat="42.20589" lon="8.95937">
        <ele>1367.9</ele>
        <time>2014-07-19T15:04:58Z</time>
      </trkpt>
      <trkpt lat="42.20584" lon="8.95907">
        <ele>1378.5</ele>
        <time>2014-07-19T15:21:39Z</time>
      </trkpt>
      <trkpt lat="42.20617" lon="8.95868">
        <ele>1376.5</ele>
        <time>2014-07-19T15:23:03Z</time>
      </trkpt>
      <trkpt lat="42.20617" lon="8.95868">
        <ele>1376.5</ele>
        <time>2014-07-19T15:23:04Z</time>
      </trkpt>
      <trkpt lat="42.20622" lon="8.95839">
        <ele>1376.3</ele>
        <time>2014-07-19T15:24:05Z</time>
      </trkpt>
      <trkpt lat="42.20644" lon="8.95789">
        <ele>1378</ele>
        <time>2014-07-19T15:25:37Z</time>
      </trkpt>
      <trkpt lat="42.20644" lon="8.95789">
        <ele>1378</ele>
        <time>2014-07-19T15:25:38Z</time>
      </trkpt>
      <trkpt lat="42.20685" lon="8.95769">
        <ele>1378</ele>
        <time>2014-07-19T15:26:51Z</time>
      </trkpt>
      <trkpt lat="42.20685" lon="8.95769">
        <ele>1378</ele>
        <time>2014-07-19T15:26:52Z</time>
      </trkpt>
      <trkpt lat="42.20681" lon="8.95739">
        <ele>1378</ele>
        <time>2014-07-19T15:28:05Z</time>
      </trkpt>
      <trkpt lat="42.20688" lon="8.9571">
        <ele>1378</ele>
        <time>2014-07-19T15:29:17Z</time>
      </trkpt>
      <trkpt lat="42.20708" lon="8.95669">
        <ele>1378</ele>
        <time>2014-07-19T15:30:46Z</time>
      </trkpt>
      <trkpt lat="42.2071" lon="8.95669">
        <ele>1378</ele>
        <time>2014-07-19T15:30:47Z</time>
      </trkpt>
      <trkpt lat="42.20711" lon="8.95638">
        <ele>1377</ele>
        <time>2014-07-19T15:32:59Z</time>
      </trkpt>
      <trkpt lat="42.20687" lon="8.95589">
        <ele>1376.5</ele>
        <time>2014-07-19T15:34:29Z</time>
      </trkpt>
      <trkpt lat="42.20686" lon="8.95589">
        <ele>1376.5</ele>
        <time>2014-07-19T15:34:30Z</time>
      </trkpt>
      <trkpt lat="42.20665" lon="8.95537">
        <ele>1376.5</ele>
        <time>2014-07-19T15:35:26Z</time>
      </trkpt>
      <trkpt lat="42.20661" lon="8.95508">
        <ele>1376</ele>
        <time>2014-07-19T15:36:06Z</time>
      </trkpt>
      <trkpt lat="42.20661" lon="8.95507">
        <ele>1376</ele>
        <time>2014-07-19T15:36:07Z</time>
      </trkpt>
      <trkpt lat="42.20658" lon="8.95448">
        <ele>1375.8</ele>
        <time>2014-07-19T15:37:27Z</time>
      </trkpt>
      <trkpt lat="42.20659" lon="8.95448">
        <ele>1375.8</ele>
        <time>2014-07-19T15:37:28Z</time>
      </trkpt>
      <trkpt lat="42.20692" lon="8.95412">
        <ele>1375.5</ele>
        <time>2014-07-19T15:38:16Z</time>
      </trkpt>
      <trkpt lat="42.20697" lon="8.95383">
        <ele>1375.4</ele>
        <time>2014-07-19T15:38:43Z</time>
      </trkpt>
      <trkpt lat="42.20697" lon="8.95381">
        <ele>1375.4</ele>
        <time>2014-07-19T15:38:44Z</time>
      </trkpt>
      <trkpt lat="42.20686" lon="8.95326">
        <ele>1374.8</ele>
        <time>2014-07-19T15:39:31Z</time>
      </trkpt>
      <trkpt lat="42.20677" lon="8.95298">
        <ele>1374.5</ele>
        <time>2014-07-19T15:39:57Z</time>
      </trkpt>
      <trkpt lat="42.20677" lon="8.95296">
        <ele>1374.5</ele>
        <time>2014-07-19T15:39:58Z</time>
      </trkpt>
      <trkpt lat="42.20699" lon="8.95262">
        <ele>1373</ele>
        <time>2014-07-19T15:40:53Z</time>
      </trkpt>
      <trkpt lat="42.20684" lon="8.95239">
        <ele>1372.5</ele>
        <time>2014-07-19T15:41:36Z</time>
      </trkpt>
      <trkpt lat="42.20684" lon="8.95239">
        <ele>1372.5</ele>
        <time>2014-07-19T15:41:37Z</time>
      </trkpt>
      <trkpt lat="42.20704" lon="8.95224">
        <ele>1371.9</ele>
        <time>2014-07-19T15:43:07Z</time>
      </trkpt>
      <trkpt lat="42.20688" lon="8.95169">
        <ele>1371.3</ele>
        <time>2014-07-19T15:44:15Z</time>
      </trkpt>
      <trkpt lat="42.20687" lon="8.95168">
        <ele>1371.3</ele>
        <time>2014-07-19T15:44:16Z</time>
      </trkpt>
      <trkpt lat="42.20671" lon="8.95114">
        <ele>1371</ele>
        <time>2014-07-19T15:45:01Z</time>
      </trkpt>
      <trkpt lat="42.20674" lon="8.95085">
        <ele>1371.3</ele>
        <time>2014-07-19T15:45:34Z</time>
      </trkpt>
      <trkpt lat="42.20674" lon="8.95084">
        <ele>1371.3</ele>
        <time>2014-07-19T15:45:35Z</time>
      </trkpt>
      <trkpt lat="42.20668" lon="8.95026">
        <ele>1366.8</ele>
        <time>2014-07-19T15:46:52Z</time>
      </trkpt>
      <trkpt lat="42.20668" lon="8.95026">
        <ele>1366.5</ele>
        <time>2014-07-19T15:46:53Z</time>
      </trkpt>
      <trkpt lat="42.20665" lon="8.94969">
        <ele>1364.9</ele>
        <time>2014-07-19T15:47:36Z</time>
      </trkpt>
      <trkpt lat="42.20658" lon="8.94941">
        <ele>1364.5</ele>
        <time>2014-07-19T15:47:50Z</time>
      </trkpt>
      <trkpt lat="42.20649" lon="8.94914">
        <ele>1364.4</ele>
        <time>2014-07-19T15:48:10Z</time>
      </trkpt>
      <trkpt lat="42.20648" lon="8.94913">
        <ele>1364.4</ele>
        <time>2014-07-19T15:48:11Z</time>
      </trkpt>
      <trkpt lat="42.2065" lon="8.94856">
        <ele>1361</ele>
        <time>2014-07-19T15:48:58Z</time>
      </trkpt>
      <trkpt lat="42.20649" lon="8.94826">
        <ele>1359.5</ele>
        <time>2014-07-19T15:49:37Z</time>
      </trkpt>
      <trkpt lat="42.20649" lon="8.94826">
        <ele>1359.5</ele>
        <time>2014-07-19T15:49:38Z</time>
      </trkpt>
      <trkpt lat="42.20627" lon="8.94775">
        <ele>1359</ele>
        <time>2014-07-19T15:50:57Z</time>
      </trkpt>
      <trkpt lat="42.20626" lon="8.94775">
        <ele>1359</ele>
        <time>2014-07-19T15:50:58Z</time>
      </trkpt>
      <trkpt lat="42.20593" lon="8.9474">
        <ele>1358</ele>
        <time>2014-07-19T15:51:49Z</time>
      </trkpt>
      <trkpt lat="42.20579" lon="8.94717">
        <ele>1357.8</ele>
        <time>2014-07-19T15:52:17Z</time>
      </trkpt>
      <trkpt lat="42.20578" lon="8.94716">
        <ele>1357.8</ele>
        <time>2014-07-19T15:52:18Z</time>
      </trkpt>
      <trkpt lat="42.2054" lon="8.94693">
        <ele>1351.3</ele>
        <time>2014-07-19T15:53:17Z</time>
      </trkpt>
      <trkpt lat="42.20519" lon="8.94699">
        <ele>1348</ele>
        <time>2014-07-19T15:53:44Z</time>
      </trkpt>
      <trkpt lat="42.20518" lon="8.94699">
        <ele>1347.9</ele>
        <time>2014-07-19T15:53:45Z</time>
      </trkpt>
      <trkpt lat="42.20476" lon="8.94698">
        <ele>1340.4</ele>
        <time>2014-07-19T15:54:36Z</time>
      </trkpt>
      <trkpt lat="42.20454" lon="8.94703">
        <ele>1337.3</ele>
        <time>2014-07-19T15:55:06Z</time>
      </trkpt>
      <trkpt lat="42.20453" lon="8.94703">
        <ele>1337</ele>
        <time>2014-07-19T15:55:07Z</time>
      </trkpt>
      <trkpt lat="42.20409" lon="8.94698">
        <ele>1330.5</ele>
        <time>2014-07-19T15:55:53Z</time>
      </trkpt>
      <trkpt lat="42.20392" lon="8.9468">
        <ele>1324.8</ele>
        <time>2014-07-19T15:56:49Z</time>
      </trkpt>
      <trkpt lat="42.20392" lon="8.94677">
        <ele>1324.5</ele>
        <time>2014-07-19T15:56:50Z</time>
      </trkpt>
      <trkpt lat="42.20404" lon="8.94624">
        <ele>1326.3</ele>
        <time>2014-07-19T15:57:30Z</time>
      </trkpt>
      <trkpt lat="42.20411" lon="8.94596">
        <ele>1328.3</ele>
        <time>2014-07-19T15:58:11Z</time>
      </trkpt>
      <trkpt lat="42.20411" lon="8.94595">
        <ele>1328.3</ele>
        <time>2014-07-19T15:58:12Z</time>
      </trkpt>
      <trkpt lat="42.20451" lon="8.9458">
        <ele>1328.5</ele>
        <time>2014-07-19T15:59:51Z</time>
      </trkpt>
      <trkpt lat="42.20451" lon="8.9458">
        <ele>1328.5</ele>
        <time>2014-07-19T15:59:52Z</time>
      </trkpt>
      <trkpt lat="42.20459" lon="8.94522">
        <ele>1329</ele>
        <time>2014-07-19T16:00:57Z</time>
      </trkpt>
      <trkpt lat="42.20459" lon="8.94521">
        <ele>1329</ele>
        <time>2014-07-19T16:00:58Z</time>
      </trkpt>
      <trkpt lat="42.20493" lon="8.94492">
        <ele>1327.9</ele>
        <time>2014-07-19T16:01:30Z</time>
      </trkpt>
      <trkpt lat="42.20515" lon="8.945">
        <ele>1327</ele>
        <time>2014-07-19T16:01:52Z</time>
      </trkpt>
      <trkpt lat="42.20534" lon="8.94485">
        <ele>1326.5</ele>
        <time>2014-07-19T16:02:32Z</time>
      </trkpt>
      <trkpt lat="42.20535" lon="8.94485">
        <ele>1326.5</ele>
        <time>2014-07-19T16:02:33Z</time>
      </trkpt>
    </trkseg>
  </trk>
</gpx>